sensor_id;sensor_type;location;lat;lon;timestamp;temperature;humidity
59847;DHT22;45728;48.788;2.302;2023-06-22T00:02:18;23.10;99.90
59847;DHT22;45728;48.788;2.302;2023-06-22T00:04:44;23.00;99.90
59847;DHT22;45728;48.788;2.302;2023-06-22T00:07:10;23.00;99.90
59847;DHT22;45728;48.788;2.302;2023-06-22T00:09:36;23.00;99.90
59847;DHT22;45728;48.788;2.302;2023-06-22T00:12:03;22.80;99.90
59847;DHT22;45728;48.788;2.302;2023-06-22T00:14:29;22.90;99.90
59847;DHT22;45728;48.788;2.302;2023-06-22T00:16:55;22.90;99.90
59847;DHT22;45728;48.788;2.302;2023-06-22T00:19:23;22.80;99.90
59847;DHT22;45728;48.788;2.302;2023-06-22T00:21:50;22.90;99.90
59847;DHT22;45728;48.788;2.302;2023-06-22T00:24:20;22.90;99.90
59847;DHT22;45728;48.788;2.302;2023-06-22T00:26:47;22.90;99.90
59847;DHT22;45728;48.788;2.302;2023-06-22T00:29:13;22.80;99.90
59847;DHT22;45728;48.788;2.302;2023-06-22T00:31:39;22.80;99.90
59847;DHT22;45728;48.788;2.302;2023-06-22T00:34:05;22.80;99.90
59847;DHT22;45728;48.788;2.302;2023-06-22T00:36:37;22.70;99.90
59847;DHT22;45728;48.788;2.302;2023-06-22T00:39:06;22.70;99.90
59847;DHT22;45728;48.788;2.302;2023-06-22T00:41:33;22.50;99.90
59847;DHT22;45728;48.788;2.302;2023-06-22T00:44:00;22.50;99.90
59847;DHT22;45728;48.788;2.302;2023-06-22T00:46:26;22.50;99.90
59847;DHT22;45728;48.788;2.302;2023-06-22T00:48:52;22.50;99.90
59847;DHT22;45728;48.788;2.302;2023-06-22T00:51:19;22.40;99.90
59847;DHT22;45728;48.788;2.302;2023-06-22T00:53:50;22.40;99.90
59847;DHT22;45728;48.788;2.302;2023-06-22T00:56:17;22.50;99.90
59847;DHT22;45728;48.788;2.302;2023-06-22T00:58:46;22.60;99.90
59847;DHT22;45728;48.788;2.302;2023-06-22T01:01:13;22.60;99.90
59847;DHT22;45728;48.788;2.302;2023-06-22T01:03:40;22.30;99.90
59847;DHT22;45728;48.788;2.302;2023-06-22T01:06:10;22.20;99.90
59847;DHT22;45728;48.788;2.302;2023-06-22T01:08:51;22.20;99.90
59847;DHT22;45728;48.788;2.302;2023-06-22T01:11:36;22.20;99.90
59847;DHT22;45728;48.788;2.302;2023-06-22T01:14:12;22.10;99.90
59847;DHT22;45728;48.788;2.302;2023-06-22T01:16:44;22.10;99.90
59847;DHT22;45728;48.788;2.302;2023-06-22T01:22:01;22.20;99.90
59847;DHT22;45728;48.788;2.302;2023-06-22T01:24:37;22.10;99.90
59847;DHT22;45728;48.788;2.302;2023-06-22T01:29:56;22.20;99.90
59847;DHT22;45728;48.788;2.302;2023-06-22T01:32:36;22.30;99.90
59847;DHT22;45728;48.788;2.302;2023-06-22T01:35:05;22.20;99.90
59847;DHT22;45728;48.788;2.302;2023-06-22T01:37:33;22.20;99.90
59847;DHT22;45728;48.788;2.302;2023-06-22T01:40:00;22.00;99.90
59847;DHT22;45728;48.788;2.302;2023-06-22T01:42:27;22.00;99.90
59847;DHT22;45728;48.788;2.302;2023-06-22T01:44:54;21.90;99.90
59847;DHT22;45728;48.788;2.302;2023-06-22T01:47:21;21.90;99.90
59847;DHT22;45728;48.788;2.302;2023-06-22T01:49:48;21.90;99.90
59847;DHT22;45728;48.788;2.302;2023-06-22T01:52:15;21.80;99.90
59847;DHT22;45728;48.788;2.302;2023-06-22T01:54:41;21.80;99.90
59847;DHT22;45728;48.788;2.302;2023-06-22T01:57:07;21.80;99.90
59847;DHT22;45728;48.788;2.302;2023-06-22T01:59:44;21.90;99.90
59847;DHT22;45728;48.788;2.302;2023-06-22T02:02:13;21.90;99.90
59847;DHT22;45728;48.788;2.302;2023-06-22T02:05:15;21.70;99.90
59847;DHT22;45728;48.788;2.302;2023-06-22T02:07:41;21.60;99.90
59847;DHT22;45728;48.788;2.302;2023-06-22T02:10:08;21.70;99.90
59847;DHT22;45728;48.788;2.302;2023-06-22T02:12:35;21.70;99.90
59847;DHT22;45728;48.788;2.302;2023-06-22T02:15:02;21.70;99.90
59847;DHT22;45728;48.788;2.302;2023-06-22T02:17:29;21.60;99.90
59847;DHT22;45728;48.788;2.302;2023-06-22T02:19:59;21.70;99.90
59847;DHT22;45728;48.788;2.302;2023-06-22T02:22:26;21.70;99.90
59847;DHT22;45728;48.788;2.302;2023-06-22T02:24:52;21.70;99.90
59847;DHT22;45728;48.788;2.302;2023-06-22T02:27:18;21.70;99.90
59847;DHT22;45728;48.788;2.302;2023-06-22T02:29:44;21.60;99.90
59847;DHT22;45728;48.788;2.302;2023-06-22T02:32:11;21.60;99.90
59847;DHT22;45728;48.788;2.302;2023-06-22T02:34:37;21.50;99.90
59847;DHT22;45728;48.788;2.302;2023-06-22T02:37:03;21.50;99.90
59847;DHT22;45728;48.788;2.302;2023-06-22T02:39:29;21.60;99.90
59847;DHT22;45728;48.788;2.302;2023-06-22T02:41:55;21.60;99.90
59847;DHT22;45728;48.788;2.302;2023-06-22T02:44:21;21.50;99.90
59847;DHT22;45728;48.788;2.302;2023-06-22T02:46:48;21.60;99.90
59847;DHT22;45728;48.788;2.302;2023-06-22T02:49:14;21.70;99.90
59847;DHT22;45728;48.788;2.302;2023-06-22T02:51:44;21.60;99.90
59847;DHT22;45728;48.788;2.302;2023-06-22T02:54:10;21.70;99.90
59847;DHT22;45728;48.788;2.302;2023-06-22T02:56:36;21.70;99.90
59847;DHT22;45728;48.788;2.302;2023-06-22T02:59:03;21.80;99.90
59847;DHT22;45728;48.788;2.302;2023-06-22T03:01:30;21.90;99.90
59847;DHT22;45728;48.788;2.302;2023-06-22T03:04:06;21.70;99.90
59847;DHT22;45728;48.788;2.302;2023-06-22T03:06:33;21.70;99.90
59847;DHT22;45728;48.788;2.302;2023-06-22T03:09:01;21.70;99.90
59847;DHT22;45728;48.788;2.302;2023-06-22T03:11:29;21.60;99.90
59847;DHT22;45728;48.788;2.302;2023-06-22T03:13:56;21.50;99.90
59847;DHT22;45728;48.788;2.302;2023-06-22T03:16:22;21.40;99.90
59847;DHT22;45728;48.788;2.302;2023-06-22T03:18:48;21.30;99.90
59847;DHT22;45728;48.788;2.302;2023-06-22T03:21:15;21.30;99.90
59847;DHT22;45728;48.788;2.302;2023-06-22T03:23:43;21.20;99.90
59847;DHT22;45728;48.788;2.302;2023-06-22T03:26:09;21.20;99.90
59847;DHT22;45728;48.788;2.302;2023-06-22T03:28:37;21.30;99.90
59847;DHT22;45728;48.788;2.302;2023-06-22T03:31:04;21.30;99.90
59847;DHT22;45728;48.788;2.302;2023-06-22T03:33:32;21.30;99.90
59847;DHT22;45728;48.788;2.302;2023-06-22T03:35:58;21.20;99.90
59847;DHT22;45728;48.788;2.302;2023-06-22T03:38:24;21.20;99.90
59847;DHT22;45728;48.788;2.302;2023-06-22T03:40:51;21.20;99.90
59847;DHT22;45728;48.788;2.302;2023-06-22T03:43:17;21.20;99.90
59847;DHT22;45728;48.788;2.302;2023-06-22T03:45:43;21.20;99.90
59847;DHT22;45728;48.788;2.302;2023-06-22T03:48:11;21.10;99.90
59847;DHT22;45728;48.788;2.302;2023-06-22T03:50:37;21.20;99.90
59847;DHT22;45728;48.788;2.302;2023-06-22T03:53:04;21.20;99.90
59847;DHT22;45728;48.788;2.302;2023-06-22T03:55:30;21.20;99.90
59847;DHT22;45728;48.788;2.302;2023-06-22T03:57:56;21.20;99.90
59847;DHT22;45728;48.788;2.302;2023-06-22T04:00:23;21.20;99.90
59847;DHT22;45728;48.788;2.302;2023-06-22T04:02:49;21.20;99.90
59847;DHT22;45728;48.788;2.302;2023-06-22T04:05:15;21.20;99.90
59847;DHT22;45728;48.788;2.302;2023-06-22T04:07:44;21.20;99.90
59847;DHT22;45728;48.788;2.302;2023-06-22T04:10:10;21.20;99.90
59847;DHT22;45728;48.788;2.302;2023-06-22T04:12:36;21.20;99.90
59847;DHT22;45728;48.788;2.302;2023-06-22T04:15:02;21.10;99.90
59847;DHT22;45728;48.788;2.302;2023-06-22T04:17:28;21.10;99.90
59847;DHT22;45728;48.788;2.302;2023-06-22T04:19:54;21.20;99.90
59847;DHT22;45728;48.788;2.302;2023-06-22T04:22:20;21.30;99.90
59847;DHT22;45728;48.788;2.302;2023-06-22T04:24:46;21.30;99.90
59847;DHT22;45728;48.788;2.302;2023-06-22T04:27:12;21.30;99.90
59847;DHT22;45728;48.788;2.302;2023-06-22T04:29:38;21.20;99.90
59847;DHT22;45728;48.788;2.302;2023-06-22T04:32:15;21.20;99.90
59847;DHT22;45728;48.788;2.302;2023-06-22T04:34:42;21.20;99.90
59847;DHT22;45728;48.788;2.302;2023-06-22T04:37:08;21.30;99.90
59847;DHT22;45728;48.788;2.302;2023-06-22T04:39:34;21.30;99.90
59847;DHT22;45728;48.788;2.302;2023-06-22T04:42:01;21.30;99.90
59847;DHT22;45728;48.788;2.302;2023-06-22T04:44:28;21.30;99.90
59847;DHT22;45728;48.788;2.302;2023-06-22T04:46:56;21.30;99.90
59847;DHT22;45728;48.788;2.302;2023-06-22T04:49:35;21.10;99.90
59847;DHT22;45728;48.788;2.302;2023-06-22T04:52:08;21.10;99.90
59847;DHT22;45728;48.788;2.302;2023-06-22T04:54:36;21.20;99.90
59847;DHT22;45728;48.788;2.302;2023-06-22T04:57:03;21.30;99.90
59847;DHT22;45728;48.788;2.302;2023-06-22T04:59:31;21.30;99.90
59847;DHT22;45728;48.788;2.302;2023-06-22T05:01:59;21.40;99.90
59847;DHT22;45728;48.788;2.302;2023-06-22T05:04:26;21.30;99.90
59847;DHT22;45728;48.788;2.302;2023-06-22T05:06:54;21.10;99.90
59847;DHT22;45728;48.788;2.302;2023-06-22T05:09:21;21.20;99.90
59847;DHT22;45728;48.788;2.302;2023-06-22T05:11:47;21.20;99.90
59847;DHT22;45728;48.788;2.302;2023-06-22T05:14:13;21.00;99.90
59847;DHT22;45728;48.788;2.302;2023-06-22T05:16:41;21.00;99.90
59847;DHT22;45728;48.788;2.302;2023-06-22T05:19:08;20.80;99.90
59847;DHT22;45728;48.788;2.302;2023-06-22T05:21:34;20.60;99.90
59847;DHT22;45728;48.788;2.302;2023-06-22T05:24:00;20.50;99.90
59847;DHT22;45728;48.788;2.302;2023-06-22T05:26:29;20.40;99.90
59847;DHT22;45728;48.788;2.302;2023-06-22T05:28:56;20.40;99.90
59847;DHT22;45728;48.788;2.302;2023-06-22T05:31:23;20.40;99.90
59847;DHT22;45728;48.788;2.302;2023-06-22T05:33:52;20.30;99.90
59847;DHT22;45728;48.788;2.302;2023-06-22T05:36:18;20.20;99.90
59847;DHT22;45728;48.788;2.302;2023-06-22T05:38:52;20.10;99.90
59847;DHT22;45728;48.788;2.302;2023-06-22T05:41:18;20.10;99.90
59847;DHT22;45728;48.788;2.302;2023-06-22T05:43:44;20.10;99.90
59847;DHT22;45728;48.788;2.302;2023-06-22T05:46:10;20.00;99.90
59847;DHT22;45728;48.788;2.302;2023-06-22T05:48:36;19.90;99.90
59847;DHT22;45728;48.788;2.302;2023-06-22T05:51:02;19.90;99.90
59847;DHT22;45728;48.788;2.302;2023-06-22T05:53:28;19.90;99.90
59847;DHT22;45728;48.788;2.302;2023-06-22T05:55:54;19.80;99.90
59847;DHT22;45728;48.788;2.302;2023-06-22T05:58:21;19.70;99.90
59847;DHT22;45728;48.788;2.302;2023-06-22T06:00:47;19.60;99.90
59847;DHT22;45728;48.788;2.302;2023-06-22T06:03:13;19.60;99.90
59847;DHT22;45728;48.788;2.302;2023-06-22T06:05:43;19.60;99.90
59847;DHT22;45728;48.788;2.302;2023-06-22T06:08:09;19.60;99.90
59847;DHT22;45728;48.788;2.302;2023-06-22T06:10:36;19.50;99.90
59847;DHT22;45728;48.788;2.302;2023-06-22T06:13:03;19.50;99.90
59847;DHT22;45728;48.788;2.302;2023-06-22T06:15:31;19.50;99.90
59847;DHT22;45728;48.788;2.302;2023-06-22T06:17:58;19.50;99.90
59847;DHT22;45728;48.788;2.302;2023-06-22T06:20:25;19.50;99.90
59847;DHT22;45728;48.788;2.302;2023-06-22T06:22:52;19.60;99.90
59847;DHT22;45728;48.788;2.302;2023-06-22T06:25:18;19.50;99.90
59847;DHT22;45728;48.788;2.302;2023-06-22T06:27:46;19.50;99.90
59847;DHT22;45728;48.788;2.302;2023-06-22T06:30:14;19.60;99.90
59847;DHT22;45728;48.788;2.302;2023-06-22T06:32:41;19.50;99.90
59847;DHT22;45728;48.788;2.302;2023-06-22T06:35:08;19.60;99.90
59847;DHT22;45728;48.788;2.302;2023-06-22T06:37:40;19.60;99.90
59847;DHT22;45728;48.788;2.302;2023-06-22T06:40:07;19.70;99.90
59847;DHT22;45728;48.788;2.302;2023-06-22T06:42:37;19.70;99.90
59847;DHT22;45728;48.788;2.302;2023-06-22T06:45:27;19.60;99.90
59847;DHT22;45728;48.788;2.302;2023-06-22T06:47:54;19.60;99.90
59847;DHT22;45728;48.788;2.302;2023-06-22T06:50:20;19.50;99.90
59847;DHT22;45728;48.788;2.302;2023-06-22T06:52:46;19.40;99.90
59847;DHT22;45728;48.788;2.302;2023-06-22T06:55:13;19.40;99.90
59847;DHT22;45728;48.788;2.302;2023-06-22T06:57:40;19.40;99.90
59847;DHT22;45728;48.788;2.302;2023-06-22T07:00:07;19.30;99.90
59847;DHT22;45728;48.788;2.302;2023-06-22T07:02:41;19.10;99.90
59847;DHT22;45728;48.788;2.302;2023-06-22T07:05:09;19.10;99.90
59847;DHT22;45728;48.788;2.302;2023-06-22T07:07:35;19.10;99.90
59847;DHT22;45728;48.788;2.302;2023-06-22T07:10:01;19.10;99.90
59847;DHT22;45728;48.788;2.302;2023-06-22T07:12:27;19.20;99.90
59847;DHT22;45728;48.788;2.302;2023-06-22T07:14:53;19.20;99.90
59847;DHT22;45728;48.788;2.302;2023-06-22T07:17:19;19.20;99.90
59847;DHT22;45728;48.788;2.302;2023-06-22T07:19:45;19.20;99.90
59847;DHT22;45728;48.788;2.302;2023-06-22T07:22:12;19.20;99.90
59847;DHT22;45728;48.788;2.302;2023-06-22T07:24:38;19.20;99.90
59847;DHT22;45728;48.788;2.302;2023-06-22T07:27:04;19.10;99.90
59847;DHT22;45728;48.788;2.302;2023-06-22T07:29:32;19.00;99.90
59847;DHT22;45728;48.788;2.302;2023-06-22T07:31:59;18.90;99.90
59847;DHT22;45728;48.788;2.302;2023-06-22T07:34:26;19.00;99.90
59847;DHT22;45728;48.788;2.302;2023-06-22T07:36:52;19.00;99.90
59847;DHT22;45728;48.788;2.302;2023-06-22T07:39:18;19.00;99.90
59847;DHT22;45728;48.788;2.302;2023-06-22T07:41:48;19.00;99.90
59847;DHT22;45728;48.788;2.302;2023-06-22T07:44:14;19.10;99.90
59847;DHT22;45728;48.788;2.302;2023-06-22T07:46:40;19.00;99.90
59847;DHT22;45728;48.788;2.302;2023-06-22T07:49:06;19.00;99.90
59847;DHT22;45728;48.788;2.302;2023-06-22T07:51:34;19.00;99.90
59847;DHT22;45728;48.788;2.302;2023-06-22T07:54:00;19.00;99.90
59847;DHT22;45728;48.788;2.302;2023-06-22T07:56:26;19.10;99.90
59847;DHT22;45728;48.788;2.302;2023-06-22T07:58:52;19.10;99.90
59847;DHT22;45728;48.788;2.302;2023-06-22T08:01:19;19.00;99.90
59847;DHT22;45728;48.788;2.302;2023-06-22T08:03:49;18.90;99.90
59847;DHT22;45728;48.788;2.302;2023-06-22T08:06:16;18.90;99.90
59847;DHT22;45728;48.788;2.302;2023-06-22T08:08:42;18.90;99.90
59847;DHT22;45728;48.788;2.302;2023-06-22T08:11:09;18.90;99.90
59847;DHT22;45728;48.788;2.302;2023-06-22T08:13:35;18.90;99.90
59847;DHT22;45728;48.788;2.302;2023-06-22T08:16:01;18.80;99.90
59847;DHT22;45728;48.788;2.302;2023-06-22T08:18:28;18.80;99.90
59847;DHT22;45728;48.788;2.302;2023-06-22T08:20:54;18.80;99.90
59847;DHT22;45728;48.788;2.302;2023-06-22T08:23:20;18.70;99.90
59847;DHT22;45728;48.788;2.302;2023-06-22T08:25:46;18.80;99.90
59847;DHT22;45728;48.788;2.302;2023-06-22T08:28:13;18.70;99.90
59847;DHT22;45728;48.788;2.302;2023-06-22T08:30:40;18.70;99.90
59847;DHT22;45728;48.788;2.302;2023-06-22T08:33:06;18.60;99.90
59847;DHT22;45728;48.788;2.302;2023-06-22T08:35:32;18.60;99.90
59847;DHT22;45728;48.788;2.302;2023-06-22T08:37:58;18.60;99.90
59847;DHT22;45728;48.788;2.302;2023-06-22T08:40:25;18.60;99.90
59847;DHT22;45728;48.788;2.302;2023-06-22T08:42:51;18.50;99.90
59847;DHT22;45728;48.788;2.302;2023-06-22T08:45:17;18.40;99.90
59847;DHT22;45728;48.788;2.302;2023-06-22T08:47:43;18.40;99.90
59847;DHT22;45728;48.788;2.302;2023-06-22T08:50:10;18.30;99.90
59847;DHT22;45728;48.788;2.302;2023-06-22T08:52:38;18.30;99.90
59847;DHT22;45728;48.788;2.302;2023-06-22T08:55:07;18.40;99.90
59847;DHT22;45728;48.788;2.302;2023-06-22T08:57:34;18.40;99.90
59847;DHT22;45728;48.788;2.302;2023-06-22T09:00:07;18.40;99.90
59847;DHT22;45728;48.788;2.302;2023-06-22T09:02:40;18.40;99.90
59847;DHT22;45728;48.788;2.302;2023-06-22T09:05:07;18.40;99.90
59847;DHT22;45728;48.788;2.302;2023-06-22T09:07:33;18.30;99.90
59847;DHT22;45728;48.788;2.302;2023-06-22T09:10:00;18.40;99.90
59847;DHT22;45728;48.788;2.302;2023-06-22T09:12:26;18.40;99.90
59847;DHT22;45728;48.788;2.302;2023-06-22T09:14:53;18.40;99.90
59847;DHT22;45728;48.788;2.302;2023-06-22T09:17:19;18.40;99.90
59847;DHT22;45728;48.788;2.302;2023-06-22T09:19:45;18.40;99.90
59847;DHT22;45728;48.788;2.302;2023-06-22T09:22:13;18.40;99.90
59847;DHT22;45728;48.788;2.302;2023-06-22T09:24:39;18.40;99.90
59847;DHT22;45728;48.788;2.302;2023-06-22T09:27:05;18.40;99.90
59847;DHT22;45728;48.788;2.302;2023-06-22T09:29:31;18.40;99.90
59847;DHT22;45728;48.788;2.302;2023-06-22T09:32:01;18.40;99.90
59847;DHT22;45728;48.788;2.302;2023-06-22T09:34:27;18.40;99.90
59847;DHT22;45728;48.788;2.302;2023-06-22T09:36:53;18.40;99.90
59847;DHT22;45728;48.788;2.302;2023-06-22T09:39:20;18.40;99.90
59847;DHT22;45728;48.788;2.302;2023-06-22T09:41:47;18.50;99.90
59847;DHT22;45728;48.788;2.302;2023-06-22T09:44:13;18.40;99.90
59847;DHT22;45728;48.788;2.302;2023-06-22T09:46:39;18.40;99.90
59847;DHT22;45728;48.788;2.302;2023-06-22T09:49:05;18.40;99.90
59847;DHT22;45728;48.788;2.302;2023-06-22T09:51:32;18.40;99.90
59847;DHT22;45728;48.788;2.302;2023-06-22T09:53:58;18.40;99.90
59847;DHT22;45728;48.788;2.302;2023-06-22T09:56:24;18.30;99.90
59847;DHT22;45728;48.788;2.302;2023-06-22T09:58:50;18.40;99.90
59847;DHT22;45728;48.788;2.302;2023-06-22T10:01:18;18.40;99.90
59847;DHT22;45728;48.788;2.302;2023-06-22T10:03:46;18.50;99.90
59847;DHT22;45728;48.788;2.302;2023-06-22T10:06:12;18.40;99.90
59847;DHT22;45728;48.788;2.302;2023-06-22T10:08:38;18.40;99.90
59847;DHT22;45728;48.788;2.302;2023-06-22T10:11:06;18.50;99.90
59847;DHT22;45728;48.788;2.302;2023-06-22T10:13:32;18.50;99.90
59847;DHT22;45728;48.788;2.302;2023-06-22T10:15:58;18.60;99.90
59847;DHT22;45728;48.788;2.302;2023-06-22T10:18:24;18.70;99.90
59847;DHT22;45728;48.788;2.302;2023-06-22T10:20:51;18.80;99.90
59847;DHT22;45728;48.788;2.302;2023-06-22T10:23:18;18.90;99.90
59847;DHT22;45728;48.788;2.302;2023-06-22T10:25:44;19.10;99.90
59847;DHT22;45728;48.788;2.302;2023-06-22T10:28:11;19.20;99.90
59847;DHT22;45728;48.788;2.302;2023-06-22T10:30:39;19.10;99.90
59847;DHT22;45728;48.788;2.302;2023-06-22T10:33:07;19.20;99.90
59847;DHT22;45728;48.788;2.302;2023-06-22T10:35:34;19.30;99.90
59847;DHT22;45728;48.788;2.302;2023-06-22T10:38:00;19.20;99.90
59847;DHT22;45728;48.788;2.302;2023-06-22T10:40:26;19.30;99.90
59847;DHT22;45728;48.788;2.302;2023-06-22T10:42:52;19.40;99.90
59847;DHT22;45728;48.788;2.302;2023-06-22T10:45:18;19.50;99.90
59847;DHT22;45728;48.788;2.302;2023-06-22T10:47:44;19.50;99.90
59847;DHT22;45728;48.788;2.302;2023-06-22T10:50:11;19.60;99.90
59847;DHT22;45728;48.788;2.302;2023-06-22T10:52:37;19.70;99.90
59847;DHT22;45728;48.788;2.302;2023-06-22T10:55:04;19.70;99.90
59847;DHT22;45728;48.788;2.302;2023-06-22T10:57:30;19.70;99.90
59847;DHT22;45728;48.788;2.302;2023-06-22T10:59:56;19.60;99.90
59847;DHT22;45728;48.788;2.302;2023-06-22T11:02:23;19.80;99.90
59847;DHT22;45728;48.788;2.302;2023-06-22T11:04:50;19.80;99.90
59847;DHT22;45728;48.788;2.302;2023-06-22T11:07:16;19.80;99.90
59847;DHT22;45728;48.788;2.302;2023-06-22T11:09:45;19.80;99.90
59847;DHT22;45728;48.788;2.302;2023-06-22T11:12:11;19.80;99.90
59847;DHT22;45728;48.788;2.302;2023-06-22T11:14:39;19.80;99.90
59847;DHT22;45728;48.788;2.302;2023-06-22T11:17:05;20.00;99.90
59847;DHT22;45728;48.788;2.302;2023-06-22T11:19:31;20.00;99.90
59847;DHT22;45728;48.788;2.302;2023-06-22T11:21:57;20.00;99.90
59847;DHT22;45728;48.788;2.302;2023-06-22T11:24:23;20.00;99.90
59847;DHT22;45728;48.788;2.302;2023-06-22T11:26:49;20.00;99.90
59847;DHT22;45728;48.788;2.302;2023-06-22T11:29:15;20.00;99.90
59847;DHT22;45728;48.788;2.302;2023-06-22T11:31:41;20.00;99.90
59847;DHT22;45728;48.788;2.302;2023-06-22T11:34:09;20.10;99.90
59847;DHT22;45728;48.788;2.302;2023-06-22T11:36:35;20.20;99.90
59847;DHT22;45728;48.788;2.302;2023-06-22T11:39:02;20.10;99.90
59847;DHT22;45728;48.788;2.302;2023-06-22T11:41:28;20.20;99.90
59847;DHT22;45728;48.788;2.302;2023-06-22T11:43:54;20.20;99.90
59847;DHT22;45728;48.788;2.302;2023-06-22T11:46:20;20.20;99.90
59847;DHT22;45728;48.788;2.302;2023-06-22T11:48:46;20.40;99.90
59847;DHT22;45728;48.788;2.302;2023-06-22T11:51:12;20.40;99.90
59847;DHT22;45728;48.788;2.302;2023-06-22T11:53:38;20.60;99.90
59847;DHT22;45728;48.788;2.302;2023-06-22T11:56:04;20.60;99.90
59847;DHT22;45728;48.788;2.302;2023-06-22T11:58:30;20.70;99.90
59847;DHT22;45728;48.788;2.302;2023-06-22T12:00:56;20.60;99.90
59847;DHT22;45728;48.788;2.302;2023-06-22T12:03:23;20.80;99.90
59847;DHT22;45728;48.788;2.302;2023-06-22T12:05:50;21.00;99.90
59847;DHT22;45728;48.788;2.302;2023-06-22T12:08:16;21.00;99.90
59847;DHT22;45728;48.788;2.302;2023-06-22T12:10:42;21.10;99.90
59847;DHT22;45728;48.788;2.302;2023-06-22T12:13:08;21.30;99.90
59847;DHT22;45728;48.788;2.302;2023-06-22T12:15:34;21.30;99.90
59847;DHT22;45728;48.788;2.302;2023-06-22T12:18:00;21.40;99.90
59847;DHT22;45728;48.788;2.302;2023-06-22T12:20:27;21.50;99.90
59847;DHT22;45728;48.788;2.302;2023-06-22T12:22:53;21.70;99.90
59847;DHT22;45728;48.788;2.302;2023-06-22T12:25:22;21.70;99.90
59847;DHT22;45728;48.788;2.302;2023-06-22T12:27:48;21.90;99.90
59847;DHT22;45728;48.788;2.302;2023-06-22T12:30:16;22.20;99.90
59847;DHT22;45728;48.788;2.302;2023-06-22T12:32:42;22.00;99.90
59847;DHT22;45728;48.788;2.302;2023-06-22T12:35:08;21.90;99.90
59847;DHT22;45728;48.788;2.302;2023-06-22T12:37:43;22.10;99.90
59847;DHT22;45728;48.788;2.302;2023-06-22T12:40:10;22.00;99.90
59847;DHT22;45728;48.788;2.302;2023-06-22T12:42:36;21.90;99.90
59847;DHT22;45728;48.788;2.302;2023-06-22T12:45:02;21.90;99.90
59847;DHT22;45728;48.788;2.302;2023-06-22T12:47:28;21.80;99.90
59847;DHT22;45728;48.788;2.302;2023-06-22T12:49:55;21.70;99.90
59847;DHT22;45728;48.788;2.302;2023-06-22T12:52:21;21.70;99.90
59847;DHT22;45728;48.788;2.302;2023-06-22T12:54:47;21.80;99.90
59847;DHT22;45728;48.788;2.302;2023-06-22T12:57:14;21.90;99.90
59847;DHT22;45728;48.788;2.302;2023-06-22T12:59:40;21.90;99.90
59847;DHT22;45728;48.788;2.302;2023-06-22T13:02:06;21.80;99.90
59847;DHT22;45728;48.788;2.302;2023-06-22T13:04:32;21.90;99.90
59847;DHT22;45728;48.788;2.302;2023-06-22T13:06:58;22.00;99.90
59847;DHT22;45728;48.788;2.302;2023-06-22T13:09:25;21.80;99.90
59847;DHT22;45728;48.788;2.302;2023-06-22T13:11:51;21.70;99.90
59847;DHT22;45728;48.788;2.302;2023-06-22T13:14:18;21.60;99.90
59847;DHT22;45728;48.788;2.302;2023-06-22T13:16:44;21.70;99.90
59847;DHT22;45728;48.788;2.302;2023-06-22T13:19:10;21.80;99.90
59847;DHT22;45728;48.788;2.302;2023-06-22T13:21:36;21.70;99.90
59847;DHT22;45728;48.788;2.302;2023-06-22T13:24:02;21.70;99.90
59847;DHT22;45728;48.788;2.302;2023-06-22T13:26:29;21.80;99.90
59847;DHT22;45728;48.788;2.302;2023-06-22T13:28:55;21.70;99.90
59847;DHT22;45728;48.788;2.302;2023-06-22T13:31:21;21.70;99.90
59847;DHT22;45728;48.788;2.302;2023-06-22T13:33:48;21.80;99.90
59847;DHT22;45728;48.788;2.302;2023-06-22T13:36:14;21.80;99.90
59847;DHT22;45728;48.788;2.302;2023-06-22T13:38:41;22.00;99.90
59847;DHT22;45728;48.788;2.302;2023-06-22T13:41:07;21.90;99.90
59847;DHT22;45728;48.788;2.302;2023-06-22T13:43:33;21.90;99.90
59847;DHT22;45728;48.788;2.302;2023-06-22T13:45:59;22.10;99.90
59847;DHT22;45728;48.788;2.302;2023-06-22T13:48:25;22.00;99.90
59847;DHT22;45728;48.788;2.302;2023-06-22T13:50:52;22.00;99.90
59847;DHT22;45728;48.788;2.302;2023-06-22T13:53:18;22.00;99.90
59847;DHT22;45728;48.788;2.302;2023-06-22T13:55:44;22.20;99.90
59847;DHT22;45728;48.788;2.302;2023-06-22T13:58:11;22.20;99.90
59847;DHT22;45728;48.788;2.302;2023-06-22T14:00:37;22.20;99.90
59847;DHT22;45728;48.788;2.302;2023-06-22T14:03:03;22.00;99.90
59847;DHT22;45728;48.788;2.302;2023-06-22T14:05:29;21.90;99.90
59847;DHT22;45728;48.788;2.302;2023-06-22T14:07:55;22.00;99.90
59847;DHT22;45728;48.788;2.302;2023-06-22T14:10:21;22.00;99.90
59847;DHT22;45728;48.788;2.302;2023-06-22T14:12:47;21.90;99.90
59847;DHT22;45728;48.788;2.302;2023-06-22T14:15:13;21.90;99.90
59847;DHT22;45728;48.788;2.302;2023-06-22T14:17:42;21.90;99.90
59847;DHT22;45728;48.788;2.302;2023-06-22T14:20:08;22.00;99.90
59847;DHT22;45728;48.788;2.302;2023-06-22T14:22:34;22.10;99.90
59847;DHT22;45728;48.788;2.302;2023-06-22T14:25:01;22.20;99.90
59847;DHT22;45728;48.788;2.302;2023-06-22T14:27:28;22.30;99.90
59847;DHT22;45728;48.788;2.302;2023-06-22T14:29:54;22.20;99.90
59847;DHT22;45728;48.788;2.302;2023-06-22T14:32:20;22.30;99.90
59847;DHT22;45728;48.788;2.302;2023-06-22T14:34:46;22.30;99.90
59847;DHT22;45728;48.788;2.302;2023-06-22T14:37:12;22.50;99.90
59847;DHT22;45728;48.788;2.302;2023-06-22T14:39:41;22.40;99.90
59847;DHT22;45728;48.788;2.302;2023-06-22T14:42:08;22.30;99.90
59847;DHT22;45728;48.788;2.302;2023-06-22T14:44:34;22.30;99.90
59847;DHT22;45728;48.788;2.302;2023-06-22T14:47:01;22.30;99.90
59847;DHT22;45728;48.788;2.302;2023-06-22T14:49:27;22.40;99.90
59847;DHT22;45728;48.788;2.302;2023-06-22T14:51:53;22.40;99.90
59847;DHT22;45728;48.788;2.302;2023-06-22T14:54:19;22.40;99.90
59847;DHT22;45728;48.788;2.302;2023-06-22T14:56:45;22.40;99.90
59847;DHT22;45728;48.788;2.302;2023-06-22T14:59:12;22.50;99.90
59847;DHT22;45728;48.788;2.302;2023-06-22T15:01:38;22.60;99.90
59847;DHT22;45728;48.788;2.302;2023-06-22T15:04:04;22.60;99.90
59847;DHT22;45728;48.788;2.302;2023-06-22T15:06:30;22.70;99.90
59847;DHT22;45728;48.788;2.302;2023-06-22T15:08:56;22.80;99.90
59847;DHT22;45728;48.788;2.302;2023-06-22T15:11:23;22.80;99.90
59847;DHT22;45728;48.788;2.302;2023-06-22T15:13:49;22.90;99.90
59847;DHT22;45728;48.788;2.302;2023-06-22T15:16:15;22.90;99.90
59847;DHT22;45728;48.788;2.302;2023-06-22T15:18:41;23.00;99.90
59847;DHT22;45728;48.788;2.302;2023-06-22T15:21:07;23.00;99.90
59847;DHT22;45728;48.788;2.302;2023-06-22T15:23:34;23.10;99.90
59847;DHT22;45728;48.788;2.302;2023-06-22T15:26:02;23.20;99.90
59847;DHT22;45728;48.788;2.302;2023-06-22T15:28:30;23.40;99.90
59847;DHT22;45728;48.788;2.302;2023-06-22T15:30:58;23.40;99.90
59847;DHT22;45728;48.788;2.302;2023-06-22T15:33:24;23.40;99.90
59847;DHT22;45728;48.788;2.302;2023-06-22T15:35:51;23.40;99.90